sensor_id;sensor_type;location;lat;lon;timestamp;P1;durP1;ratioP1;P2;durP2;ratioP2
21820;SDS011;11073;48.586;12.066;2022-07-05T00:02:23;4.88;;;3.70;;
21820;SDS011;11073;48.586;12.066;2022-07-05T00:04:52;4.13;;;3.78;;
21820;SDS011;11073;48.586;12.066;2022-07-05T00:07:21;4.07;;;3.67;;
21820;SDS011;11073;48.586;12.066;2022-07-05T00:09:51;4.88;;;3.42;;
21820;SDS011;11073;48.586;12.066;2022-07-05T00:12:21;5.50;;;3.75;;
21820;SDS011;11073;48.586;12.066;2022-07-05T00:14:51;5.22;;;3.85;;
21820;SDS011;11073;48.586;12.066;2022-07-05T00:17:20;4.57;;;3.53;;
21820;SDS011;11073;48.586;12.066;2022-07-05T00:19:51;4.22;;;3.53;;
21820;SDS011;11073;48.586;12.066;2022-07-05T00:22:20;3.85;;;3.42;;
21820;SDS011;11073;48.586;12.066;2022-07-05T00:24:55;4.80;;;3.75;;
21820;SDS011;11073;48.586;12.066;2022-07-05T00:27:25;4.70;;;3.22;;
21820;SDS011;11073;48.586;12.066;2022-07-05T00:29:53;4.25;;;3.85;;
21820;SDS011;11073;48.586;12.066;2022-07-05T00:32:22;5.80;;;4.30;;
21820;SDS011;11073;48.586;12.066;2022-07-05T00:34:51;4.20;;;3.80;;
21820;SDS011;11073;48.586;12.066;2022-07-05T00:37:20;4.22;;;3.10;;
21820;SDS011;11073;48.586;12.066;2022-07-05T00:39:49;3.63;;;3.03;;
21820;SDS011;11073;48.586;12.066;2022-07-05T00:42:18;3.35;;;2.75;;
21820;SDS011;11073;48.586;12.066;2022-07-05T00:44:46;4.25;;;3.75;;
21820;SDS011;11073;48.586;12.066;2022-07-05T00:47:15;4.95;;;3.58;;
21820;SDS011;11073;48.586;12.066;2022-07-05T00:49:44;5.45;;;2.72;;
21820;SDS011;11073;48.586;12.066;2022-07-05T00:52:14;4.93;;;3.70;;
21820;SDS011;11073;48.586;12.066;2022-07-05T00:54:47;4.60;;;3.25;;
21820;SDS011;11073;48.586;12.066;2022-07-05T00:57:16;6.28;;;3.33;;
21820;SDS011;11073;48.586;12.066;2022-07-05T00:59:46;5.60;;;4.13;;
21820;SDS011;11073;48.586;12.066;2022-07-05T01:02:15;6.68;;;3.55;;
21820;SDS011;11073;48.586;12.066;2022-07-05T01:04:48;5.05;;;3.30;;
21820;SDS011;11073;48.586;12.066;2022-07-05T01:07:20;3.97;;;3.50;;
21820;SDS011;11073;48.586;12.066;2022-07-05T01:09:51;5.10;;;3.83;;
21820;SDS011;11073;48.586;12.066;2022-07-05T01:12:19;4.82;;;4.25;;
21820;SDS011;11073;48.586;12.066;2022-07-05T01:14:48;4.10;;;2.88;;
21820;SDS011;11073;48.586;12.066;2022-07-05T01:17:17;5.90;;;3.20;;
21820;SDS011;11073;48.586;12.066;2022-07-05T01:19:46;4.57;;;3.40;;
21820;SDS011;11073;48.586;12.066;2022-07-05T01:22:16;7.57;;;3.28;;
21820;SDS011;11073;48.586;12.066;2022-07-05T01:24:48;6.60;;;4.47;;
21820;SDS011;11073;48.586;12.066;2022-07-05T01:27:17;7.25;;;3.80;;
21820;SDS011;11073;48.586;12.066;2022-07-05T01:29:47;7.05;;;3.83;;
21820;SDS011;11073;48.586;12.066;2022-07-05T01:32:16;4.10;;;3.35;;
21820;SDS011;11073;48.586;12.066;2022-07-05T01:34:45;4.22;;;3.75;;
21820;SDS011;11073;48.586;12.066;2022-07-05T01:37:15;4.68;;;4.07;;
21820;SDS011;11073;48.586;12.066;2022-07-05T01:39:44;7.38;;;3.42;;
21820;SDS011;11073;48.586;12.066;2022-07-05T01:42:15;5.97;;;4.60;;
21820;SDS011;11073;48.586;12.066;2022-07-05T01:44:43;4.75;;;3.80;;
21820;SDS011;11073;48.586;12.066;2022-07-05T01:47:12;4.13;;;3.70;;
21820;SDS011;11073;48.586;12.066;2022-07-05T01:49:43;6.57;;;3.80;;
21820;SDS011;11073;48.586;12.066;2022-07-05T01:52:16;5.80;;;3.30;;
21820;SDS011;11073;48.586;12.066;2022-07-05T01:54:48;4.57;;;3.83;;
21820;SDS011;11073;48.586;12.066;2022-07-05T01:57:18;7.03;;;4.50;;
21820;SDS011;11073;48.586;12.066;2022-07-05T01:59:48;3.83;;;3.40;;
21820;SDS011;11073;48.586;12.066;2022-07-05T02:02:17;4.45;;;3.28;;
21820;SDS011;11073;48.586;12.066;2022-07-05T02:04:47;4.55;;;3.92;;
21820;SDS011;11073;48.586;12.066;2022-07-05T02:07:16;6.47;;;3.90;;
21820;SDS011;11073;48.586;12.066;2022-07-05T02:09:45;4.15;;;3.20;;
21820;SDS011;11073;48.586;12.066;2022-07-05T02:12:14;5.55;;;3.28;;
21820;SDS011;11073;48.586;12.066;2022-07-05T02:14:45;10.43;;;3.58;;
21820;SDS011;11073;48.586;12.066;2022-07-05T02:17:17;4.65;;;3.03;;
21820;SDS011;11073;48.586;12.066;2022-07-05T02:19:51;4.78;;;3.55;;
21820;SDS011;11073;48.586;12.066;2022-07-05T02:22:20;6.07;;;3.17;;
21820;SDS011;11073;48.586;12.066;2022-07-05T02:24:49;4.40;;;3.22;;
21820;SDS011;11073;48.586;12.066;2022-07-05T02:27:21;4.53;;;3.40;;
21820;SDS011;11073;48.586;12.066;2022-07-05T02:29:53;4.43;;;2.90;;
21820;SDS011;11073;48.586;12.066;2022-07-05T02:32:31;4.82;;;3.00;;
21820;SDS011;11073;48.586;12.066;2022-07-05T02:35:02;7.57;;;3.55;;
21820;SDS011;11073;48.586;12.066;2022-07-05T02:37:33;6.28;;;3.30;;
21820;SDS011;11073;48.586;12.066;2022-07-05T02:40:04;4.00;;;2.90;;
21820;SDS011;11073;48.586;12.066;2022-07-05T02:42:37;5.68;;;2.97;;
21820;SDS011;11073;48.586;12.066;2022-07-05T02:45:10;4.07;;;3.47;;
21820;SDS011;11073;48.586;12.066;2022-07-05T02:47:40;3.90;;;2.78;;
21820;SDS011;11073;48.586;12.066;2022-07-05T02:50:10;4.93;;;2.70;;
21820;SDS011;11073;48.586;12.066;2022-07-05T02:52:44;9.75;;;3.35;;
21820;SDS011;11073;48.586;12.066;2022-07-05T02:55:14;5.82;;;2.97;;
21820;SDS011;11073;48.586;12.066;2022-07-05T02:57:44;4.82;;;2.83;;
21820;SDS011;11073;48.586;12.066;2022-07-05T03:00:16;5.55;;;3.28;;
21820;SDS011;11073;48.586;12.066;2022-07-05T03:02:47;7.90;;;3.13;;
21820;SDS011;11073;48.586;12.066;2022-07-05T03:05:17;3.35;;;2.60;;
21820;SDS011;11073;48.586;12.066;2022-07-05T03:07:55;3.83;;;2.92;;
21820;SDS011;11073;48.586;12.066;2022-07-05T03:10:25;3.72;;;3.03;;
21820;SDS011;11073;48.586;12.066;2022-07-05T03:12:56;5.72;;;3.00;;
21820;SDS011;11073;48.586;12.066;2022-07-05T03:15:26;3.90;;;3.45;;
21820;SDS011;11073;48.586;12.066;2022-07-05T03:17:57;5.32;;;2.90;;
21820;SDS011;11073;48.586;12.066;2022-07-05T03:20:29;4.50;;;3.08;;
21820;SDS011;11073;48.586;12.066;2022-07-05T03:22:58;4.18;;;3.20;;
21820;SDS011;11073;48.586;12.066;2022-07-05T03:25:36;5.38;;;3.38;;
21820;SDS011;11073;48.586;12.066;2022-07-05T03:28:05;7.45;;;3.05;;
21820;SDS011;11073;48.586;12.066;2022-07-05T03:30:36;4.43;;;3.20;;
21820;SDS011;11073;48.586;12.066;2022-07-05T03:33:07;6.25;;;3.05;;
21820;SDS011;11073;48.586;12.066;2022-07-05T03:35:38;6.40;;;2.92;;
21820;SDS011;11073;48.586;12.066;2022-07-05T03:38:07;5.90;;;3.05;;
21820;SDS011;11073;48.586;12.066;2022-07-05T03:40:36;8.57;;;3.35;;
21820;SDS011;11073;48.586;12.066;2022-07-05T03:43:05;5.70;;;2.80;;
21820;SDS011;11073;48.586;12.066;2022-07-05T03:45:38;8.30;;;3.47;;
21820;SDS011;11073;48.586;12.066;2022-07-05T03:48:08;6.25;;;2.92;;
21820;SDS011;11073;48.586;12.066;2022-07-05T03:50:57;4.68;;;3.05;;
21820;SDS011;11073;48.586;12.066;2022-07-05T03:53:27;4.57;;;2.92;;
21820;SDS011;11073;48.586;12.066;2022-07-05T03:55:57;7.07;;;2.92;;
21820;SDS011;11073;48.586;12.066;2022-07-05T03:58:26;5.82;;;3.20;;
21820;SDS011;11073;48.586;12.066;2022-07-05T04:00:59;7.47;;;3.15;;
21820;SDS011;11073;48.586;12.066;2022-07-05T04:03:29;3.65;;;2.70;;
21820;SDS011;11073;48.586;12.066;2022-07-05T04:06:00;6.63;;;2.97;;
21820;SDS011;11073;48.586;12.066;2022-07-05T04:08:30;9.93;;;3.20;;
21820;SDS011;11073;48.586;12.066;2022-07-05T04:10:59;5.43;;;3.10;;
21820;SDS011;11073;48.586;12.066;2022-07-05T04:13:28;8.13;;;3.92;;
21820;SDS011;11073;48.586;12.066;2022-07-05T04:15:59;5.07;;;2.97;;
21820;SDS011;11073;48.586;12.066;2022-07-05T04:18:28;5.57;;;2.97;;
21820;SDS011;11073;48.586;12.066;2022-07-05T04:20:58;6.90;;;3.28;;
21820;SDS011;11073;48.586;12.066;2022-07-05T04:23:28;4.20;;;3.20;;
21820;SDS011;11073;48.586;12.066;2022-07-05T04:25:57;6.65;;;3.17;;
21820;SDS011;11073;48.586;12.066;2022-07-05T04:28:31;4.25;;;3.10;;
21820;SDS011;11073;48.586;12.066;2022-07-05T04:31:03;6.90;;;4.13;;
21820;SDS011;11073;48.586;12.066;2022-07-05T04:33:36;7.43;;;5.18;;
21820;SDS011;11073;48.586;12.066;2022-07-05T04:36:05;7.90;;;4.05;;
21820;SDS011;11073;48.586;12.066;2022-07-05T04:38:34;8.10;;;3.67;;
21820;SDS011;11073;48.586;12.066;2022-07-05T04:41:04;5.75;;;3.55;;
21820;SDS011;11073;48.586;12.066;2022-07-05T04:43:34;6.35;;;3.53;;
21820;SDS011;11073;48.586;12.066;2022-07-05T04:46:08;6.78;;;3.63;;
21820;SDS011;11073;48.586;12.066;2022-07-05T04:48:36;5.05;;;3.58;;
21820;SDS011;11073;48.586;12.066;2022-07-05T04:51:07;10.25;;;3.40;;
21820;SDS011;11073;48.586;12.066;2022-07-05T04:53:35;6.93;;;3.47;;
21820;SDS011;11073;48.586;12.066;2022-07-05T04:56:04;8.40;;;3.38;;
21820;SDS011;11073;48.586;12.066;2022-07-05T04:58:33;7.70;;;3.78;;
21820;SDS011;11073;48.586;12.066;2022-07-05T05:01:02;4.82;;;3.25;;
21820;SDS011;11073;48.586;12.066;2022-07-05T05:03:32;6.65;;;3.70;;
21820;SDS011;11073;48.586;12.066;2022-07-05T05:06:01;7.25;;;3.85;;
21820;SDS011;11073;48.586;12.066;2022-07-05T05:08:30;7.22;;;3.05;;
21820;SDS011;11073;48.586;12.066;2022-07-05T05:10:59;5.25;;;3.60;;
21820;SDS011;11073;48.586;12.066;2022-07-05T05:13:28;4.40;;;3.35;;
21820;SDS011;11073;48.586;12.066;2022-07-05T05:15:56;5.53;;;3.20;;
21820;SDS011;11073;48.586;12.066;2022-07-05T05:18:25;4.50;;;3.30;;
21820;SDS011;11073;48.586;12.066;2022-07-05T05:20:55;6.30;;;3.30;;
21820;SDS011;11073;48.586;12.066;2022-07-05T05:23:24;8.35;;;3.65;;
21820;SDS011;11073;48.586;12.066;2022-07-05T05:25:52;6.57;;;3.83;;
21820;SDS011;11073;48.586;12.066;2022-07-05T05:28:21;5.68;;;3.50;;
21820;SDS011;11073;48.586;12.066;2022-07-05T05:30:50;6.95;;;3.53;;
21820;SDS011;11073;48.586;12.066;2022-07-05T05:33:19;4.97;;;3.47;;
21820;SDS011;11073;48.586;12.066;2022-07-05T05:35:53;5.60;;;3.42;;
21820;SDS011;11073;48.586;12.066;2022-07-05T05:38:24;5.93;;;3.60;;
21820;SDS011;11073;48.586;12.066;2022-07-05T05:40:52;6.95;;;3.63;;
21820;SDS011;11073;48.586;12.066;2022-07-05T05:43:21;4.93;;;3.70;;
21820;SDS011;11073;48.586;12.066;2022-07-05T05:45:50;7.40;;;3.83;;
21820;SDS011;11073;48.586;12.066;2022-07-05T05:48:18;4.43;;;3.50;;
21820;SDS011;11073;48.586;12.066;2022-07-05T05:50:48;4.60;;;3.75;;
21820;SDS011;11073;48.586;12.066;2022-07-05T05:53:18;4.10;;;3.60;;
21820;SDS011;11073;48.586;12.066;2022-07-05T05:55:48;8.80;;;3.67;;
21820;SDS011;11073;48.586;12.066;2022-07-05T05:58:17;7.15;;;4.13;;
21820;SDS011;11073;48.586;12.066;2022-07-05T06:00:47;4.82;;;3.55;;
21820;SDS011;11073;48.586;12.066;2022-07-05T06:03:19;5.82;;;3.30;;
21820;SDS011;11073;48.586;12.066;2022-07-05T06:05:49;7.63;;;3.67;;
21820;SDS011;11073;48.586;12.066;2022-07-05T06:08:18;5.03;;;3.50;;
21820;SDS011;11073;48.586;12.066;2022-07-05T06:10:48;4.03;;;3.30;;
21820;SDS011;11073;48.586;12.066;2022-07-05T06:13:28;7.35;;;3.75;;
21820;SDS011;11073;48.586;12.066;2022-07-05T06:15:56;9.10;;;3.85;;
21820;SDS011;11073;48.586;12.066;2022-07-05T06:18:25;6.82;;;3.30;;
21820;SDS011;11073;48.586;12.066;2022-07-05T06:20:53;3.65;;;3.33;;
21820;SDS011;11073;48.586;12.066;2022-07-05T06:23:22;5.30;;;2.95;;
21820;SDS011;11073;48.586;12.066;2022-07-05T06:25:52;4.05;;;3.63;;
21820;SDS011;11073;48.586;12.066;2022-07-05T06:28:21;6.43;;;3.63;;
21820;SDS011;11073;48.586;12.066;2022-07-05T06:30:50;6.60;;;3.55;;
21820;SDS011;11073;48.586;12.066;2022-07-05T06:33:20;7.45;;;3.60;;
21820;SDS011;11073;48.586;12.066;2022-07-05T06:35:49;7.97;;;3.42;;
21820;SDS011;11073;48.586;12.066;2022-07-05T06:38:17;5.18;;;3.50;;
21820;SDS011;11073;48.586;12.066;2022-07-05T06:40:46;6.20;;;3.42;;
21820;SDS011;11073;48.586;12.066;2022-07-05T06:43:16;5.30;;;3.30;;
21820;SDS011;11073;48.586;12.066;2022-07-05T06:45:54;5.93;;;3.83;;
21820;SDS011;11073;48.586;12.066;2022-07-05T06:48:23;4.95;;;2.95;;
21820;SDS011;11073;48.586;12.066;2022-07-05T06:50:52;4.15;;;3.30;;
21820;SDS011;11073;48.586;12.066;2022-07-05T06:53:20;5.05;;;3.40;;
21820;SDS011;11073;48.586;12.066;2022-07-05T06:55:49;7.25;;;3.15;;
21820;SDS011;11073;48.586;12.066;2022-07-05T06:58:24;6.38;;;3.75;;
21820;SDS011;11073;48.586;12.066;2022-07-05T07:00:53;4.88;;;3.28;;
21820;SDS011;11073;48.586;12.066;2022-07-05T07:03:41;5.80;;;3.35;;
21820;SDS011;11073;48.586;12.066;2022-07-05T07:06:30;3.80;;;2.90;;
21820;SDS011;11073;48.586;12.066;2022-07-05T07:08:59;7.35;;;3.22;;
21820;SDS011;11073;48.586;12.066;2022-07-05T07:11:45;5.88;;;3.47;;
21820;SDS011;11073;48.586;12.066;2022-07-05T07:14:17;5.25;;;3.10;;
21820;SDS011;11073;48.586;12.066;2022-07-05T07:16:45;3.83;;;3.05;;
21820;SDS011;11073;48.586;12.066;2022-07-05T07:19:14;4.90;;;3.53;;
21820;SDS011;11073;48.586;12.066;2022-07-05T07:21:42;6.32;;;3.50;;
21820;SDS011;11073;48.586;12.066;2022-07-05T07:24:11;5.05;;;3.45;;
21820;SDS011;11073;48.586;12.066;2022-07-05T07:26:40;4.93;;;3.45;;
21820;SDS011;11073;48.586;12.066;2022-07-05T07:29:27;4.20;;;3.63;;
21820;SDS011;11073;48.586;12.066;2022-07-05T07:31:56;3.30;;;3.00;;
21820;SDS011;11073;48.586;12.066;2022-07-05T07:34:26;3.67;;;2.75;;
21820;SDS011;11073;48.586;12.066;2022-07-05T07:36:55;6.82;;;2.92;;
21820;SDS011;11073;48.586;12.066;2022-07-05T07:39:25;3.55;;;3.08;;
21820;SDS011;11073;48.586;12.066;2022-07-05T07:41:53;4.82;;;3.13;;
21820;SDS011;11073;48.586;12.066;2022-07-05T07:44:21;5.10;;;3.17;;
21820;SDS011;11073;48.586;12.066;2022-07-05T07:46:51;3.63;;;3.03;;
21820;SDS011;11073;48.586;12.066;2022-07-05T07:49:20;4.97;;;2.90;;
21820;SDS011;11073;48.586;12.066;2022-07-05T07:51:48;5.28;;;3.15;;
21820;SDS011;11073;48.586;12.066;2022-07-05T07:54:18;3.17;;;2.80;;
21820;SDS011;11073;48.586;12.066;2022-07-05T07:56:47;5.50;;;3.30;;
21820;SDS011;11073;48.586;12.066;2022-07-05T07:59:15;4.55;;;3.38;;
21820;SDS011;11073;48.586;12.066;2022-07-05T08:01:44;4.82;;;3.22;;
21820;SDS011;11073;48.586;12.066;2022-07-05T08:04:14;4.18;;;3.05;;
21820;SDS011;11073;48.586;12.066;2022-07-05T08:06:44;4.35;;;3.03;;
21820;SDS011;11073;48.586;12.066;2022-07-05T08:09:13;3.92;;;3.10;;
21820;SDS011;11073;48.586;12.066;2022-07-05T08:11:44;4.05;;;3.20;;
21820;SDS011;11073;48.586;12.066;2022-07-05T08:14:14;6.68;;;3.33;;
21820;SDS011;11073;48.586;12.066;2022-07-05T08:16:43;5.55;;;3.30;;
21820;SDS011;11073;48.586;12.066;2022-07-05T08:19:19;3.83;;;3.38;;
21820;SDS011;11073;48.586;12.066;2022-07-05T08:22:06;4.03;;;3.63;;
21820;SDS011;11073;48.586;12.066;2022-07-05T08:24:37;3.85;;;3.00;;
21820;SDS011;11073;48.586;12.066;2022-07-05T08:27:08;7.13;;;3.33;;
21820;SDS011;11073;48.586;12.066;2022-07-05T08:29:37;4.50;;;3.20;;
21820;SDS011;11073;48.586;12.066;2022-07-05T08:32:06;4.65;;;3.17;;
21820;SDS011;11073;48.586;12.066;2022-07-05T08:34:37;4.15;;;3.30;;
21820;SDS011;11073;48.586;12.066;2022-07-05T08:37:06;4.20;;;2.80;;
21820;SDS011;11073;48.586;12.066;2022-07-05T08:39:41;4.50;;;3.13;;
21820;SDS011;11073;48.586;12.066;2022-07-05T08:42:10;6.10;;;3.10;;
21820;SDS011;11073;48.586;12.066;2022-07-05T08:44:39;4.35;;;2.58;;
21820;SDS011;11073;48.586;12.066;2022-07-05T08:47:12;3.88;;;2.72;;
21820;SDS011;11073;48.586;12.066;2022-07-05T08:49:42;4.85;;;2.80;;
21820;SDS011;11073;48.586;12.066;2022-07-05T08:52:14;3.00;;;2.70;;
21820;SDS011;11073;48.586;12.066;2022-07-05T08:54:43;6.85;;;2.80;;
21820;SDS011;11073;48.586;12.066;2022-07-05T08:57:15;3.17;;;2.83;;
21820;SDS011;11073;48.586;12.066;2022-07-05T08:59:44;3.33;;;2.70;;
21820;SDS011;11073;48.586;12.066;2022-07-05T09:02:14;3.85;;;2.58;;
21820;SDS011;11073;48.586;12.066;2022-07-05T09:04:46;4.65;;;2.60;;
21820;SDS011;11073;48.586;12.066;2022-07-05T09:07:19;5.25;;;2.30;;
21820;SDS011;11073;48.586;12.066;2022-07-05T09:09:48;7.50;;;2.90;;
21820;SDS011;11073;48.586;12.066;2022-07-05T09:12:19;7.45;;;2.85;;
21820;SDS011;11073;48.586;12.066;2022-07-05T09:14:51;4.00;;;2.30;;
21820;SDS011;11073;48.586;12.066;2022-07-05T09:17:22;3.35;;;2.33;;
21820;SDS011;11073;48.586;12.066;2022-07-05T09:20:09;5.85;;;2.50;;
21820;SDS011;11073;48.586;12.066;2022-07-05T09:22:46;5.22;;;2.45;;
21820;SDS011;11073;48.586;12.066;2022-07-05T09:25:21;2.97;;;2.53;;
21820;SDS011;11073;48.586;12.066;2022-07-05T09:27:52;4.25;;;2.15;;
21820;SDS011;11073;48.586;12.066;2022-07-05T09:30:23;3.33;;;2.53;;
21820;SDS011;11073;48.586;12.066;2022-07-05T09:33:05;3.55;;;1.98;;
21820;SDS011;11073;48.586;12.066;2022-07-05T09:35:37;4.30;;;2.15;;
21820;SDS011;11073;48.586;12.066;2022-07-05T09:38:15;2.20;;;1.77;;
21820;SDS011;11073;48.586;12.066;2022-07-05T09:40:46;3.38;;;1.90;;
21820;SDS011;11073;48.586;12.066;2022-07-05T09:43:16;2.47;;;1.95;;
21820;SDS011;11073;48.586;12.066;2022-07-05T09:45:50;5.35;;;2.15;;
21820;SDS011;11073;48.586;12.066;2022-07-05T09:48:22;6.15;;;1.63;;
21820;SDS011;11073;48.586;12.066;2022-07-05T09:51:07;4.07;;;1.80;;
21820;SDS011;11073;48.586;12.066;2022-07-05T09:53:57;2.45;;;1.40;;
21820;SDS011;11073;48.586;12.066;2022-07-05T09:56:42;2.22;;;1.45;;
21820;SDS011;11073;48.586;12.066;2022-07-05T09:59:13;3.58;;;1.52;;
21820;SDS011;11073;48.586;12.066;2022-07-05T10:01:48;2.20;;;2.00;;
21820;SDS011;11073;48.586;12.066;2022-07-05T10:04:17;3.42;;;1.83;;
21820;SDS011;11073;48.586;12.066;2022-07-05T10:06:47;5.25;;;1.80;;
21820;SDS011;11073;48.586;12.066;2022-07-05T10:09:16;2.72;;;1.95;;
21820;SDS011;11073;48.586;12.066;2022-07-05T10:11:46;2.53;;;1.60;;
21820;SDS011;11073;48.586;12.066;2022-07-05T10:14:16;2.17;;;1.70;;
21820;SDS011;11073;48.586;12.066;2022-07-05T10:16:50;2.58;;;1.63;;
21820;SDS011;11073;48.586;12.066;2022-07-05T10:19:23;4.80;;;1.75;;
21820;SDS011;11073;48.586;12.066;2022-07-05T10:22:02;2.20;;;1.60;;
21820;SDS011;11073;48.586;12.066;2022-07-05T10:24:47;2.85;;;2.10;;
21820;SDS011;11073;48.586;12.066;2022-07-05T10:27:17;2.78;;;1.38;;
21820;SDS011;11073;48.586;12.066;2022-07-05T10:29:47;2.33;;;1.42;;
21820;SDS011;11073;48.586;12.066;2022-07-05T10:32:17;1.80;;;1.20;;
21820;SDS011;11073;48.586;12.066;2022-07-05T10:34:47;3.75;;;1.33;;
21820;SDS011;11073;48.586;12.066;2022-07-05T10:37:23;4.18;;;1.60;;
21820;SDS011;11073;48.586;12.066;2022-07-05T10:39:55;1.92;;;1.40;;
21820;SDS011;11073;48.586;12.066;2022-07-05T10:42:26;1.17;;;1.10;;
21820;SDS011;11073;48.586;12.066;2022-07-05T10:44:58;2.20;;;1.20;;
21820;SDS011;11073;48.586;12.066;2022-07-05T10:47:27;3.17;;;1.42;;
21820;SDS011;11073;48.586;12.066;2022-07-05T10:50:01;2.10;;;1.20;;
21820;SDS011;11073;48.586;12.066;2022-07-05T10:52:34;1.35;;;1.10;;
21820;SDS011;11073;48.586;12.066;2022-07-05T10:55:18;3.50;;;1.50;;
21820;SDS011;11073;48.586;12.066;2022-07-05T11:00:49;2.90;;;1.27;;
21820;SDS011;11073;48.586;12.066;2022-07-05T11:04:06;3.40;;;1.15;;
21820;SDS011;11073;48.586;12.066;2022-07-05T11:06:40;2.00;;;1.40;;
21820;SDS011;11073;48.586;12.066;2022-07-05T11:09:15;1.85;;;1.67;;
21820;SDS011;11073;48.586;12.066;2022-07-05T11:12:00;2.83;;;1.30;;
21820;SDS011;11073;48.586;12.066;2022-07-05T11:14:51;1.80;;;1.30;;
21820;SDS011;11073;48.586;12.066;2022-07-05T11:17:21;4.18;;;1.42;;
21820;SDS011;11073;48.586;12.066;2022-07-05T11:20:16;5.28;;;1.70;;
21820;SDS011;11073;48.586;12.066;2022-07-05T11:23:00;4.20;;;1.42;;
21820;SDS011;11073;48.586;12.066;2022-07-05T11:25:36;2.22;;;1.50;;
21820;SDS011;11073;48.586;12.066;2022-07-05T11:28:12;1.95;;;1.40;;
21820;SDS011;11073;48.586;12.066;2022-07-05T11:30:53;2.42;;;1.35;;
21820;SDS011;11073;48.586;12.066;2022-07-05T11:33:25;3.40;;;1.30;;
21820;SDS011;11073;48.586;12.066;2022-07-05T11:36:05;1.50;;;1.25;;
21820;SDS011;11073;48.586;12.066;2022-07-05T11:38:35;3.50;;;1.65;;
21820;SDS011;11073;48.586;12.066;2022-07-05T11:41:43;1.92;;;1.30;;
21820;SDS011;11073;48.586;12.066;2022-07-05T11:44:13;3.92;;;1.40;;
21820;SDS011;11073;48.586;12.066;2022-07-05T11:46:44;2.15;;;1.40;;
21820;SDS011;11073;48.586;12.066;2022-07-05T11:49:19;3.35;;;1.35;;
21820;SDS011;11073;48.586;12.066;2022-07-05T11:51:53;3.13;;;1.40;;
21820;SDS011;11073;48.586;12.066;2022-07-05T11:54:23;4.95;;;1.40;;
21820;SDS011;11073;48.586;12.066;2022-07-05T11:56:54;3.03;;;1.60;;
21820;SDS011;11073;48.586;12.066;2022-07-05T11:59:23;2.13;;;1.33;;
21820;SDS011;11073;48.586;12.066;2022-07-05T12:01:53;2.30;;;1.42;;
21820;SDS011;11073;48.586;12.066;2022-07-05T12:04:23;1.48;;;1.08;;
21820;SDS011;11073;48.586;12.066;2022-07-05T12:06:53;3.25;;;0.95;;
21820;SDS011;11073;48.586;12.066;2022-07-05T12:09:24;5.85;;;1.23;;
21820;SDS011;11073;48.586;12.066;2022-07-05T12:11:55;2.63;;;1.13;;
21820;SDS011;11073;48.586;12.066;2022-07-05T12:14:48;2.20;;;1.40;;
21820;SDS011;11073;48.586;12.066;2022-07-05T12:17:18;3.70;;;1.00;;
21820;SDS011;11073;48.586;12.066;2022-07-05T12:19:53;3.33;;;1.23;;
21820;SDS011;11073;48.586;12.066;2022-07-05T12:22:29;3.25;;;1.20;;
21820;SDS011;11073;48.586;12.066;2022-07-05T12:24:59;2.53;;;1.05;;
21820;SDS011;11073;48.586;12.066;2022-07-05T12:27:31;2.47;;;1.00;;
21820;SDS011;11073;48.586;12.066;2022-07-05T12:30:01;2.35;;;1.10;;
21820;SDS011;11073;48.586;12.066;2022-07-05T12:32:32;1.63;;;1.10;;
21820;SDS011;11073;48.586;12.066;2022-07-05T12:35:03;2.38;;;1.00;;
21820;SDS011;11073;48.586;12.066;2022-07-05T12:37:33;1.88;;;1.00;;
21820;SDS011;11073;48.586;12.066;2022-07-05T12:40:03;1.42;;;1.00;;
21820;SDS011;11073;48.586;12.066;2022-07-05T12:42:35;3.00;;;1.10;;
21820;SDS011;11073;48.586;12.066;2022-07-05T12:45:06;1.70;;;1.00;;
21820;SDS011;11073;48.586;12.066;2022-07-05T12:47:37;1.08;;;0.90;;
21820;SDS011;11073;48.586;12.066;2022-07-05T12:50:16;1.42;;;1.00;;
21820;SDS011;11073;48.586;12.066;2022-07-05T12:52:56;1.30;;;1.10;;
21820;SDS011;11073;48.586;12.066;2022-07-05T12:55:32;2.08;;;0.90;;
21820;SDS011;11073;48.586;12.066;2022-07-05T12:58:20;1.65;;;1.17;;
21820;SDS011;11073;48.586;12.066;2022-07-05T13:00:49;2.05;;;0.90;;
21820;SDS011;11073;48.586;12.066;2022-07-05T13:03:18;2.72;;;1.08;;
21820;SDS011;11073;48.586;12.066;2022-07-05T13:05:59;1.48;;;0.90;;
21820;SDS011;11073;48.586;12.066;2022-07-05T13:08:28;2.95;;;1.05;;
21820;SDS011;11073;48.586;12.066;2022-07-05T13:10:58;1.02;;;0.93;;
21820;SDS011;11073;48.586;12.066;2022-07-05T13:13:29;2.28;;;0.95;;
21820;SDS011;11073;48.586;12.066;2022-07-05T13:15:58;3.85;;;1.00;;
21820;SDS011;11073;48.586;12.066;2022-07-05T13:18:33;1.40;;;0.90;;
21820;SDS011;11073;48.586;12.066;2022-07-05T13:21:02;1.45;;;0.70;;
21820;SDS011;11073;48.586;12.066;2022-07-05T13:23:30;2.03;;;1.00;;
21820;SDS011;11073;48.586;12.066;2022-07-05T13:25:58;1.83;;;1.10;;
21820;SDS011;11073;48.586;12.066;2022-07-05T13:28:29;3.05;;;1.13;;
21820;SDS011;11073;48.586;12.066;2022-07-05T13:30:57;2.15;;;0.90;;
21820;SDS011;11073;48.586;12.066;2022-07-05T13:33:26;1.98;;;1.02;;
21820;SDS011;11073;48.586;12.066;2022-07-05T13:35:56;1.45;;;0.80;;
21820;SDS011;11073;48.586;12.066;2022-07-05T13:38:24;2.28;;;1.10;;
21820;SDS011;11073;48.586;12.066;2022-07-05T13:40:53;3.50;;;0.95;;
21820;SDS011;11073;48.586;12.066;2022-07-05T13:43:21;2.58;;;1.00;;
21820;SDS011;11073;48.586;12.066;2022-07-05T13:45:51;1.02;;;0.93;;
21820;SDS011;11073;48.586;12.066;2022-07-05T13:48:19;2.47;;;1.00;;
21820;SDS011;11073;48.586;12.066;2022-07-05T13:50:47;1.70;;;0.90;;
21820;SDS011;11073;48.586;12.066;2022-07-05T13:53:16;2.70;;;1.10;;
21820;SDS011;11073;48.586;12.066;2022-07-05T13:55:45;1.20;;;0.80;;
21820;SDS011;11073;48.586;12.066;2022-07-05T13:58:13;2.53;;;1.10;;
21820;SDS011;11073;48.586;12.066;2022-07-05T14:00:42;1.20;;;0.70;;
21820;SDS011;11073;48.586;12.066;2022-07-05T14:03:12;2.40;;;0.90;;
21820;SDS011;11073;48.586;12.066;2022-07-05T14:05:43;1.17;;;0.90;;
21820;SDS011;11073;48.586;12.066;2022-07-05T14:08:12;1.67;;;0.90;;
21820;SDS011;11073;48.586;12.066;2022-07-05T14:10:42;1.77;;;0.70;;
21820;SDS011;11073;48.586;12.066;2022-07-05T14:13:10;5.18;;;0.93;;
21820;SDS011;11073;48.586;12.066;2022-07-05T14:15:40;1.55;;;0.88;;
21820;SDS011;11073;48.586;12.066;2022-07-05T14:18:08;3.85;;;1.20;;
21820;SDS011;11073;48.586;12.066;2022-07-05T14:20:38;3.92;;;0.80;;
21820;SDS011;11073;48.586;12.066;2022-07-05T14:23:06;2.08;;;1.00;;
21820;SDS011;11073;48.586;12.066;2022-07-05T14:25:35;2.10;;;0.93;;
21820;SDS011;11073;48.586;12.066;2022-07-05T14:28:04;3.00;;;1.08;;
21820;SDS011;11073;48.586;12.066;2022-07-05T14:30:34;3.83;;;0.95;;
21820;SDS011;11073;48.586;12.066;2022-07-05T14:33:04;4.22;;;1.00;;
21820;SDS011;11073;48.586;12.066;2022-07-05T14:35:33;1.33;;;0.70;;
21820;SDS011;11073;48.586;12.066;2022-07-05T14:38:03;1.33;;;0.80;;
21820;SDS011;11073;48.586;12.066;2022-07-05T14:40:32;1.90;;;0.90;;
21820;SDS011;11073;48.586;12.066;2022-07-05T14:43:01;5.45;;;1.10;;
21820;SDS011;11073;48.586;12.066;2022-07-05T14:45:30;4.75;;;1.10;;
21820;SDS011;11073;48.586;12.066;2022-07-05T14:47:58;1.30;;;0.90;;
21820;SDS011;11073;48.586;12.066;2022-07-05T14:50:27;2.50;;;0.80;;
21820;SDS011;11073;48.586;12.066;2022-07-05T14:52:55;2.30;;;1.05;;
21820;SDS011;11073;48.586;12.066;2022-07-05T14:55:25;1.80;;;0.95;;
21820;SDS011;11073;48.586;12.066;2022-07-05T14:57:54;4.18;;;0.93;;
21820;SDS011;11073;48.586;12.066;2022-07-05T15:00:22;1.30;;;1.10;;
21820;SDS011;11073;48.586;12.066;2022-07-05T15:02:51;2.25;;;1.27;;